createdAt,value
2019-03-13T00:02:12.699Z,13.90
2019-03-13T00:04:43.841Z,13.53
2019-03-13T00:07:14.908Z,12.93
2019-03-13T00:09:46.757Z,12.67
2019-03-13T00:12:17.260Z,11.73
2019-03-13T00:14:47.873Z,12.23
2019-03-13T00:17:18.367Z,13.60
2019-03-13T00:19:52.854Z,12.23
2019-03-13T00:22:24.023Z,11.43
2019-03-13T00:24:57.450Z,11.87
2019-03-13T00:27:30.396Z,11.60
2019-03-13T00:30:01.966Z,12.43
2019-03-13T00:32:34.108Z,11.57
2019-03-13T00:35:05.940Z,12.80
2019-03-13T00:37:36.465Z,13.03
2019-03-13T00:40:12.416Z,12.37
2019-03-13T00:42:45.104Z,13.83
2019-03-13T00:45:16.020Z,12.93
2019-03-13T00:47:49.456Z,13.60
2019-03-13T00:50:30.123Z,14.80
2019-03-13T00:53:00.741Z,13.10
2019-03-13T00:55:31.204Z,14.07
2019-03-13T00:58:04.927Z,14.70
2019-03-13T01:00:56.280Z,14.27
2019-03-13T01:03:32.263Z,15.30
2019-03-13T01:06:14.324Z,15.63
2019-03-13T01:08:44.889Z,13.40
2019-03-13T01:11:15.363Z,15.80
2019-03-13T01:13:45.865Z,14.60
2019-03-13T01:16:16.336Z,15.87
2019-03-13T01:18:48.371Z,14.63
2019-03-13T01:21:19.702Z,14.40
2019-03-13T01:23:53.638Z,14.10
2019-03-13T01:26:27.128Z,12.60
2019-03-13T01:28:57.606Z,13.57
2019-03-13T01:31:27.878Z,13.83
2019-03-13T01:34:16.319Z,13.40
2019-03-13T01:36:47.953Z,12.27
2019-03-13T01:39:18.448Z,13.50
2019-03-13T01:41:49.050Z,13.10
2019-03-13T01:44:19.522Z,14.60
2019-03-13T01:46:50.047Z,14.53
2019-03-13T01:49:22.410Z,14.40
2019-03-13T01:51:52.931Z,13.70
2019-03-13T01:54:24.945Z,13.73
2019-03-13T01:56:55.434Z,14.40
2019-03-13T01:59:29.070Z,13.50
2019-03-13T02:01:59.568Z,12.73
2019-03-13T02:04:30.045Z,11.53
2019-03-13T02:07:00.536Z,13.10
2019-03-13T02:09:31.082Z,13.67
2019-03-13T02:12:01.642Z,12.80
2019-03-13T02:14:32.117Z,13.60
2019-03-13T02:17:03.028Z,13.33
2019-03-13T02:19:34.199Z,13.20
2019-03-13T02:22:04.771Z,12.60
2019-03-13T02:24:35.236Z,13.03
2019-03-13T02:27:05.805Z,13.73
2019-03-13T02:29:37.986Z,14.37
2019-03-13T02:32:09.161Z,13.03
2019-03-13T02:34:40.415Z,12.10
2019-03-13T02:37:14.115Z,13.47
2019-03-13T02:39:46.480Z,12.40
2019-03-13T02:42:16.990Z,13.37
2019-03-13T02:44:47.473Z,13.10
2019-03-13T02:47:19.751Z,12.17
2019-03-13T02:49:50.193Z,11.67
2019-03-13T02:52:22.243Z,12.63
2019-03-13T02:54:52.732Z,14.57
2019-03-13T02:57:23.289Z,12.87
2019-03-13T02:59:53.802Z,12.00
2019-03-13T03:02:28.590Z,13.87
2019-03-13T03:04:59.691Z,14.17
2019-03-13T03:07:31.704Z,12.53
2019-03-13T03:10:02.290Z,13.80
2019-03-13T03:12:33.920Z,13.00
2019-03-13T03:15:11.973Z,13.13
2019-03-13T03:17:42.538Z,12.07
2019-03-13T03:20:16.752Z,14.00
2019-03-13T03:22:47.743Z,14.70
2019-03-13T03:25:19.147Z,14.70
2019-03-13T03:27:51.005Z,13.73
2019-03-13T03:30:26.533Z,13.60
2019-03-13T03:32:57.228Z,14.40
2019-03-13T03:35:27.695Z,17.20
2019-03-13T03:37:59.265Z,14.47
2019-03-13T03:40:32.520Z,13.10
2019-03-13T03:43:03.979Z,13.67
2019-03-13T03:45:34.455Z,13.10
2019-03-13T03:48:05.046Z,12.50
2019-03-13T03:50:37.036Z,11.90
2019-03-13T03:53:07.597Z,12.67
2019-03-13T03:55:38.129Z,13.20
2019-03-13T03:58:08.664Z,13.23
2019-03-13T04:00:39.423Z,13.20
2019-03-13T04:03:11.279Z,13.40
2019-03-13T04:05:42.624Z,12.00
2019-03-13T04:08:13.165Z,11.53
2019-03-13T04:10:43.743Z,11.63
2019-03-13T04:13:14.268Z,13.90
2019-03-13T04:15:44.834Z,11.93
2019-03-13T04:18:15.784Z,12.80
2019-03-13T04:20:46.378Z,14.10
2019-03-13T04:23:16.913Z,12.00
2019-03-13T04:25:48.372Z,11.97
2019-03-13T04:28:18.908Z,12.97
2019-03-13T04:30:51.274Z,11.50
2019-03-13T04:33:21.780Z,11.63
2019-03-13T04:35:54.007Z,12.60
2019-03-13T04:38:24.437Z,13.47
2019-03-13T04:40:54.928Z,12.37
2019-03-13T04:43:25.436Z,12.10
2019-03-13T04:45:57.532Z,12.30
2019-03-13T04:48:28.106Z,12.37
2019-03-13T04:50:58.581Z,13.10
2019-03-13T04:53:29.075Z,11.90
2019-03-13T04:55:59.557Z,12.33
2019-03-13T04:58:31.699Z,12.63
2019-03-13T05:01:02.223Z,11.17
2019-03-13T05:03:38.983Z,11.63
2019-03-13T05:06:14.183Z,13.60
2019-03-13T05:08:45.711Z,14.10
2019-03-13T05:11:16.370Z,13.20
2019-03-13T05:13:48.381Z,13.00
2019-03-13T05:16:18.903Z,13.00
2019-03-13T05:18:49.380Z,16.07
2019-03-13T05:21:22.802Z,13.40
2019-03-13T05:23:53.283Z,14.80
2019-03-13T05:26:23.792Z,33.50
2019-03-13T05:28:55.073Z,102.83
2019-03-13T05:31:26.761Z,67.80
2019-03-13T05:33:57.367Z,57.73
2019-03-13T05:36:27.844Z,54.87
2019-03-13T05:39:01.268Z,32.47
2019-03-13T05:41:31.736Z,31.13
2019-03-13T05:44:02.241Z,21.10
2019-03-13T05:46:32.721Z,15.83
2019-03-13T05:49:03.226Z,13.97
2019-03-13T05:51:34.045Z,14.27
2019-03-13T05:54:04.641Z,15.53
2019-03-13T05:56:35.108Z,16.37
2019-03-13T05:59:05.601Z,16.20
2019-03-13T06:01:36.089Z,17.80
2019-03-13T06:04:07.954Z,17.40
2019-03-13T06:06:38.418Z,18.10
2019-03-13T06:09:10.093Z,17.37
2019-03-13T06:11:40.654Z,18.17
2019-03-13T06:14:11.708Z,17.90
2019-03-13T06:16:43.815Z,15.17
2019-03-13T06:19:15.333Z,19.77
2019-03-13T06:21:45.822Z,17.40
2019-03-13T06:24:16.287Z,14.90
2019-03-13T06:26:46.776Z,15.33
2019-03-13T06:29:17.237Z,14.10
2019-03-13T06:31:47.755Z,15.70
2019-03-13T06:34:18.212Z,14.10
2019-03-13T06:36:48.702Z,30.50
2019-03-13T06:39:19.184Z,103.97
2019-03-13T06:41:49.694Z,43.67
2019-03-13T06:44:21.745Z,16.80
2019-03-13T06:46:52.320Z,18.70
2019-03-13T06:49:24.999Z,15.23
2019-03-13T06:51:55.611Z,14.00
2019-03-13T06:54:26.046Z,13.47
2019-03-13T06:56:56.566Z,12.93
2019-03-13T06:59:29.234Z,14.20
2019-03-13T07:02:14.569Z,15.23
2019-03-13T07:05:01.741Z,14.27
2019-03-13T07:07:39.899Z,13.50
2019-03-13T07:10:12.881Z,87.50
2019-03-13T07:12:46.525Z,43.37
2019-03-13T07:15:20.232Z,52.30
2019-03-13T07:18:04.483Z,45.13
2019-03-13T07:20:43.202Z,17.80
2019-03-13T07:23:18.046Z,15.10
2019-03-13T07:25:59.373Z,13.10
2019-03-13T07:28:38.321Z,13.73
2019-03-13T07:31:13.197Z,12.90
2019-03-13T07:33:46.352Z,11.50
2019-03-13T07:36:24.800Z,12.70
2019-03-13T07:39:00.045Z,12.33
2019-03-13T07:41:32.161Z,12.20
2019-03-13T07:44:09.499Z,12.23
2019-03-13T07:46:50.625Z,11.97
2019-03-13T07:49:39.704Z,12.20
2019-03-13T07:52:32.538Z,11.27
2019-03-13T07:55:19.981Z,10.47
2019-03-13T07:58:06.388Z,10.97
2019-03-13T08:00:55.795Z,10.70
2019-03-13T08:03:26.029Z,11.10
2019-03-13T08:06:08.398Z,11.60
2019-03-13T08:08:43.475Z,10.67
2019-03-13T08:11:27.549Z,17.57
2019-03-13T08:14:14.699Z,18.50
2019-03-13T08:16:55.898Z,12.40
2019-03-13T08:19:31.728Z,11.07
2019-03-13T08:22:05.345Z,12.80
2019-03-13T08:24:37.436Z,10.63
2019-03-13T08:27:10.242Z,11.23
2019-03-13T08:29:46.336Z,11.53
2019-03-13T08:32:24.267Z,11.40
2019-03-13T08:35:08.854Z,11.80
2019-03-13T08:37:43.726Z,11.10
2019-03-13T08:40:16.210Z,11.37
2019-03-13T08:42:58.686Z,24.57
2019-03-13T08:45:30.804Z,48.93
2019-03-13T08:48:07.394Z,20.03
2019-03-13T08:50:39.531Z,11.57
2019-03-13T08:53:12.779Z,11.40
2019-03-13T08:55:45.000Z,11.50
2019-03-13T08:58:33.343Z,13.13
2019-03-13T09:01:04.158Z,10.90
2019-03-13T09:03:52.323Z,12.70
2019-03-13T09:06:33.508Z,12.30
2019-03-13T09:09:09.778Z,11.07
2019-03-13T09:11:42.389Z,10.47
2019-03-13T09:14:30.844Z,10.20
2019-03-13T09:17:12.839Z,10.97
2019-03-13T09:20:02.563Z,65.57
2019-03-13T09:22:36.209Z,50.40
2019-03-13T09:25:12.694Z,37.90
2019-03-13T09:28:04.673Z,13.60
2019-03-13T09:30:36.838Z,11.77
2019-03-13T09:33:13.195Z,11.27
2019-03-13T09:35:46.863Z,13.00
2019-03-13T09:38:30.963Z,18.83
2019-03-13T09:41:03.122Z,24.57
2019-03-13T09:43:53.001Z,12.33
2019-03-13T09:46:28.038Z,11.70
2019-03-13T09:49:04.231Z,11.43
2019-03-13T09:51:36.812Z,14.00
2019-03-13T09:54:21.017Z,13.57
2019-03-13T09:57:10.959Z,27.23
2019-03-13T09:59:43.549Z,11.87
2019-03-13T10:02:22.372Z,10.47
2019-03-13T10:04:54.479Z,9.37
2019-03-13T10:07:28.162Z,9.23
2019-03-13T10:10:07.431Z,8.23
2019-03-13T10:12:47.492Z,8.57
2019-03-13T10:15:31.545Z,9.83
2019-03-13T10:18:04.749Z,9.53
2019-03-13T10:20:42.775Z,9.77
2019-03-13T10:23:29.964Z,9.00
2019-03-13T10:26:11.167Z,7.90
2019-03-13T10:28:55.400Z,10.60
2019-03-13T10:31:33.134Z,9.97
2019-03-13T10:34:08.919Z,9.50
2019-03-13T10:36:41.023Z,8.53
2019-03-13T10:39:30.277Z,10.07
2019-03-13T10:42:08.125Z,9.03
2019-03-13T10:44:40.987Z,9.07
2019-03-13T10:47:25.958Z,9.53
2019-03-13T10:50:05.139Z,8.90
2019-03-13T10:52:44.506Z,8.40
2019-03-13T10:55:31.266Z,7.93
2019-03-13T10:58:11.865Z,8.27
2019-03-13T11:00:54.048Z,9.53
2019-03-13T11:03:43.951Z,8.30
2019-03-13T11:06:24.885Z,8.60
2019-03-13T11:09:07.853Z,9.47
2019-03-13T11:11:45.954Z,9.07
2019-03-13T11:14:31.244Z,20.53
2019-03-13T11:17:08.882Z,63.10
2019-03-13T11:19:46.226Z,16.13
2019-03-13T11:22:24.237Z,10.40
2019-03-13T11:24:56.329Z,9.90
2019-03-13T11:27:45.949Z,9.10
2019-03-13T11:30:25.694Z,10.17
2019-03-13T11:33:13.111Z,46.47
2019-03-13T11:35:43.363Z,19.90
2019-03-13T11:38:25.143Z,11.70
2019-03-13T11:40:58.365Z,9.77
2019-03-13T11:43:30.487Z,9.70
2019-03-13T11:46:05.523Z,8.03
2019-03-13T11:48:46.889Z,9.70
2019-03-13T11:51:30.064Z,9.27
2019-03-13T11:54:05.064Z,9.00
2019-03-13T11:56:53.384Z,9.53
2019-03-13T11:59:28.241Z,10.70
2019-03-13T12:02:04.707Z,10.33
2019-03-13T12:04:37.639Z,9.43
2019-03-13T12:07:09.830Z,9.37
2019-03-13T12:09:41.970Z,9.63
2019-03-13T12:12:16.418Z,10.07
2019-03-13T12:14:48.550Z,10.30
2019-03-13T12:17:23.697Z,10.40
2019-03-13T12:19:55.855Z,11.10
2019-03-13T12:22:34.039Z,14.70
2019-03-13T12:25:10.952Z,10.43
2019-03-13T12:27:47.180Z,10.10
2019-03-13T12:30:20.500Z,11.17
2019-03-13T12:32:55.251Z,10.60
2019-03-13T12:35:43.577Z,10.93
2019-03-13T12:38:19.890Z,9.77
2019-03-13T12:41:04.227Z,9.57
2019-03-13T12:43:39.245Z,10.60
2019-03-13T12:46:29.509Z,10.97
2019-03-13T12:49:17.669Z,9.60
2019-03-13T12:52:07.244Z,11.83
2019-03-13T12:54:46.867Z,11.10
2019-03-13T12:57:29.696Z,10.80
2019-03-13T13:00:11.039Z,11.87
2019-03-13T13:02:41.313Z,12.17
2019-03-13T13:05:30.405Z,11.03
2019-03-13T13:08:03.356Z,12.20
2019-03-13T13:10:41.260Z,11.67
2019-03-13T13:13:29.880Z,12.53
2019-03-13T13:16:04.053Z,12.03
2019-03-13T13:18:51.398Z,12.20
2019-03-13T13:21:23.220Z,11.60
2019-03-13T13:23:53.786Z,11.57
2019-03-13T13:26:24.381Z,10.93
2019-03-13T13:28:54.965Z,11.67
2019-03-13T13:31:25.443Z,13.17
2019-03-13T13:33:55.944Z,12.50
2019-03-13T13:36:28.897Z,12.30
2019-03-13T13:38:59.435Z,10.70
2019-03-13T13:41:31.101Z,13.23
2019-03-13T13:44:01.619Z,13.17
2019-03-13T13:46:33.584Z,10.90
2019-03-13T13:49:06.256Z,10.90
2019-03-13T13:51:37.540Z,12.10
2019-03-13T13:54:10.707Z,11.80
2019-03-13T13:56:41.190Z,10.97
2019-03-13T13:59:12.897Z,11.17
2019-03-13T14:01:44.915Z,9.53
2019-03-13T14:04:15.418Z,10.17
2019-03-13T14:06:45.877Z,11.70
2019-03-13T14:09:16.376Z,10.30
2019-03-13T14:11:46.831Z,35.10
2019-03-13T14:14:17.328Z,62.50
2019-03-13T14:16:47.814Z,35.70
2019-03-13T14:19:19.086Z,15.07
2019-03-13T14:21:49.558Z,11.00
2019-03-13T14:24:20.030Z,11.20
2019-03-13T14:26:51.172Z,10.20
2019-03-13T14:29:21.623Z,10.50
2019-03-13T14:31:52.133Z,10.00
2019-03-13T14:34:24.107Z,9.80
2019-03-13T14:36:54.574Z,10.93
2019-03-13T14:39:27.681Z,11.20
2019-03-13T14:41:58.142Z,10.50
2019-03-13T14:44:28.686Z,9.70
2019-03-13T14:46:59.164Z,11.10
2019-03-13T14:49:30.330Z,11.90
2019-03-13T14:52:03.098Z,12.00
2019-03-13T14:54:33.586Z,12.77
2019-03-13T14:57:05.685Z,11.90
2019-03-13T14:59:36.181Z,11.00
2019-03-13T15:02:08.300Z,11.50
2019-03-13T15:04:38.752Z,11.00
2019-03-13T15:07:12.189Z,11.50
2019-03-13T15:09:46.043Z,12.43
2019-03-13T15:12:16.526Z,11.60
2019-03-13T15:14:47.003Z,12.03
2019-03-13T15:17:17.491Z,12.03
2019-03-13T15:19:50.784Z,13.23
2019-03-13T15:22:22.459Z,11.30
2019-03-13T15:24:52.912Z,11.13
2019-03-13T15:27:23.421Z,12.20
2019-03-13T15:29:56.187Z,10.97
2019-03-13T15:32:29.459Z,10.27
2019-03-13T15:34:59.914Z,10.77
2019-03-13T15:37:31.072Z,12.10
2019-03-13T15:40:01.713Z,12.07
2019-03-13T15:42:32.967Z,12.70
2019-03-13T15:45:07.793Z,11.47
2019-03-13T15:47:38.944Z,10.93
2019-03-13T15:50:16.967Z,11.90
2019-03-13T15:52:49.073Z,11.80
2019-03-13T15:55:21.306Z,10.70
2019-03-13T15:57:51.803Z,12.50
2019-03-13T16:00:31.740Z,11.23
2019-03-13T16:03:02.313Z,10.67
2019-03-13T16:05:33.818Z,10.40
2019-03-13T16:08:04.322Z,11.90
2019-03-13T16:10:34.786Z,10.67
2019-03-13T16:13:06.913Z,10.73
2019-03-13T16:15:40.458Z,10.03
2019-03-13T16:18:11.477Z,10.20
2019-03-13T16:20:43.344Z,10.77
2019-03-13T16:23:16.978Z,12.40
2019-03-13T16:25:46.119Z,10.50
2019-03-13T16:28:16.584Z,71.37
2019-03-13T16:30:51.561Z,32.87
2019-03-13T16:33:23.988Z,14.00
2019-03-13T16:35:54.574Z,10.40
2019-03-13T16:38:25.702Z,10.87
2019-03-13T16:40:57.747Z,10.47
2019-03-13T16:43:28.264Z,11.03
2019-03-13T16:45:58.717Z,10.83
2019-03-13T16:48:29.290Z,12.20
2019-03-13T16:51:00.113Z,12.43
2019-03-13T16:53:33.358Z,12.30
2019-03-13T16:56:04.858Z,11.77
2019-03-13T16:58:38.402Z,11.20
2019-03-13T17:01:09.770Z,11.70
2019-03-13T17:03:40.225Z,12.83
2019-03-13T17:06:10.734Z,14.20
2019-03-13T17:08:42.343Z,12.60
2019-03-13T17:11:12.807Z,12.77
2019-03-13T17:13:43.323Z,12.17
2019-03-13T17:16:15.321Z,13.67
2019-03-13T17:18:45.890Z,18.30
2019-03-13T17:21:17.073Z,16.80
2019-03-13T17:23:47.569Z,19.27
2019-03-13T17:26:18.036Z,18.00
2019-03-13T17:28:50.890Z,18.57
2019-03-13T17:31:21.362Z,19.37
2019-03-13T17:33:53.391Z,19.60
2019-03-13T17:36:26.188Z,21.10
2019-03-13T17:38:56.693Z,17.73
2019-03-13T17:41:27.151Z,19.77
2019-03-13T17:43:57.656Z,18.97
2019-03-13T17:46:28.146Z,16.13
2019-03-13T17:49:01.109Z,15.90
2019-03-13T17:51:33.145Z,12.87
2019-03-13T17:54:04.811Z,12.23
2019-03-13T17:56:35.295Z,13.60
2019-03-13T17:59:05.850Z,12.00
2019-03-13T18:01:39.399Z,12.13
2019-03-13T18:04:09.847Z,13.97
2019-03-13T18:06:42.998Z,17.10
2019-03-13T18:09:13.484Z,14.67
2019-03-13T18:11:43.978Z,17.37
2019-03-13T18:14:14.439Z,17.30
2019-03-13T18:16:44.931Z,16.20
2019-03-13T18:19:15.391Z,17.03
2019-03-13T18:21:45.883Z,18.53
2019-03-13T18:24:17.141Z,19.90
2019-03-13T18:26:50.363Z,19.70
2019-03-13T18:29:22.340Z,20.07
2019-03-13T18:31:52.827Z,48.80
2019-03-13T18:34:23.368Z,41.10
2019-03-13T18:36:54.725Z,43.10
2019-03-13T18:39:25.263Z,42.17
2019-03-13T18:41:55.749Z,36.60
2019-03-13T18:44:26.211Z,43.43
2019-03-13T18:46:56.711Z,33.30
2019-03-13T18:49:28.384Z,32.87
2019-03-13T18:51:58.891Z,63.73
2019-03-13T18:54:29.354Z,61.67
2019-03-13T18:56:59.857Z,40.03
2019-03-13T18:59:30.324Z,33.87
2019-03-13T19:02:00.857Z,31.83
2019-03-13T19:04:31.326Z,31.00
2019-03-13T19:07:01.838Z,34.70
2019-03-13T19:09:32.950Z,33.67
2019-03-13T19:12:05.999Z,33.67
2019-03-13T19:14:36.505Z,33.53
2019-03-13T19:17:08.156Z,35.60
2019-03-13T19:19:40.738Z,35.37
2019-03-13T19:22:11.219Z,37.30
2019-03-13T19:24:42.906Z,36.60
2019-03-13T19:27:13.460Z,36.40
2019-03-13T19:29:45.856Z,35.03
2019-03-13T19:32:16.459Z,37.50
2019-03-13T19:34:47.419Z,37.67
2019-03-13T19:37:17.898Z,35.83
2019-03-13T19:39:48.476Z,34.40
2019-03-13T19:42:19.157Z,34.10
2019-03-13T19:44:49.668Z,32.70
2019-03-13T19:47:22.084Z,35.07
2019-03-13T19:49:56.926Z,34.77
2019-03-13T19:52:27.388Z,33.97
2019-03-13T19:54:59.466Z,34.07
2019-03-13T19:57:29.923Z,30.17
2019-03-13T20:00:00.485Z,31.23
2019-03-13T20:02:30.947Z,30.17
2019-03-13T20:05:02.037Z,31.70
2019-03-13T20:07:33.754Z,32.70
2019-03-13T20:10:08.770Z,34.50
2019-03-13T20:12:39.240Z,104.20
2019-03-13T20:15:15.971Z,76.93
2019-03-13T20:17:46.511Z,40.30
2019-03-13T20:20:19.896Z,36.90
2019-03-13T20:22:57.621Z,37.27
2019-03-13T20:25:28.158Z,34.57
2019-03-13T20:28:00.378Z,35.10
2019-03-13T20:30:31.005Z,29.90
2019-03-13T20:33:01.652Z,28.17
2019-03-13T20:35:32.646Z,25.37
2019-03-13T20:38:04.743Z,25.80
2019-03-13T20:40:35.278Z,23.63
2019-03-13T20:43:05.846Z,22.80
2019-03-13T20:45:36.381Z,35.00
2019-03-13T20:48:07.004Z,27.07
2019-03-13T20:50:38.181Z,27.20
2019-03-13T20:53:10.627Z,28.37
2019-03-13T20:55:42.267Z,33.03
2019-03-13T20:58:12.731Z,30.90
2019-03-13T21:00:43.287Z,32.00
2019-03-13T21:03:13.908Z,57.07
2019-03-13T21:05:44.554Z,115.40
2019-03-13T21:08:15.015Z,50.60
2019-03-13T21:10:45.522Z,33.53
2019-03-13T21:13:17.547Z,31.03
2019-03-13T21:15:48.012Z,30.63
2019-03-13T21:18:18.510Z,36.40
2019-03-13T21:20:49.019Z,73.60
2019-03-13T21:23:19.489Z,44.80
2019-03-13T21:25:50.658Z,32.60
2019-03-13T21:28:21.120Z,31.60
2019-03-13T21:30:51.643Z,29.30
2019-03-13T21:33:22.107Z,30.00
2019-03-13T21:35:55.338Z,31.33
2019-03-13T21:38:26.438Z,28.97
2019-03-13T21:40:58.202Z,30.53
2019-03-13T21:43:28.685Z,33.40
2019-03-13T21:45:59.274Z,32.47
2019-03-13T21:48:29.776Z,33.97
2019-03-13T21:51:01.806Z,33.37
2019-03-13T21:53:32.297Z,35.30
2019-03-13T21:56:02.797Z,34.50
2019-03-13T21:58:33.272Z,33.10
2019-03-13T22:01:03.743Z,32.93
2019-03-13T22:03:34.241Z,33.50
2019-03-13T22:06:04.705Z,33.80
2019-03-13T22:08:35.194Z,33.33
2019-03-13T22:11:05.791Z,33.40
2019-03-13T22:13:36.264Z,33.37
2019-03-13T22:16:06.755Z,31.90
2019-03-13T22:18:37.236Z,32.00
2019-03-13T22:21:07.803Z,33.63
2019-03-13T22:23:38.331Z,33.23
2019-03-13T22:26:08.849Z,36.00
2019-03-13T22:28:39.321Z,36.83
2019-03-13T22:31:09.813Z,33.60
2019-03-13T22:33:40.900Z,35.53
2019-03-13T22:36:11.367Z,33.10
2019-03-13T22:38:43.399Z,34.63
2019-03-13T22:41:16.698Z,33.97
2019-03-13T22:43:47.275Z,34.50
2019-03-13T22:46:17.747Z,33.90
2019-03-13T22:48:57.688Z,32.80
2019-03-13T22:51:20.417Z,32.27
2019-03-13T22:53:50.921Z,31.93
2019-03-13T22:56:22.680Z,35.07
2019-03-13T22:58:53.232Z,35.00
2019-03-13T23:01:24.535Z,33.90
2019-03-13T23:03:55.089Z,33.60
2019-03-13T23:06:25.657Z,34.60
2019-03-13T23:08:56.204Z,34.10
2019-03-13T23:11:26.716Z,34.37
2019-03-13T23:14:01.639Z,33.70
2019-03-13T23:16:34.202Z,30.50
2019-03-13T23:19:04.831Z,33.40
2019-03-13T23:21:35.286Z,32.30
2019-03-13T23:24:05.841Z,32.53
2019-03-13T23:26:36.403Z,31.47
2019-03-13T23:29:08.793Z,30.97
2019-03-13T23:31:39.247Z,31.67
2019-03-13T23:34:09.761Z,33.90
2019-03-13T23:36:40.271Z,29.13
2019-03-13T23:39:13.036Z,31.80
2019-03-13T23:41:45.103Z,32.20
2019-03-13T23:44:16.388Z,33.70
2019-03-13T23:46:46.857Z,34.57
2019-03-13T23:49:17.583Z,33.20
2019-03-13T23:51:48.222Z,33.43
2019-03-13T23:54:18.747Z,33.63
2019-03-13T23:56:49.998Z,30.77
2019-03-13T23:59:22.027Z,33.20
